createdAt,value
2023-05-08T00:00:35.939Z,13.7
2023-05-08T00:12:47.895Z,13.6
2023-05-08T00:14:52.946Z,13.6
2023-05-08T00:16:55.085Z,13.6
2023-05-08T00:18:56.949Z,13.6
2023-05-08T00:19:59.486Z,13.6
2023-05-08T00:22:01.475Z,13.5
2023-05-08T00:24:03.445Z,13.5
2023-05-08T00:26:05.465Z,13.5
2023-05-08T00:28:10.519Z,13.4
2023-05-08T00:30:12.691Z,13.4
2023-05-08T00:32:14.536Z,13.4
2023-05-08T00:34:16.470Z,13.4
2023-05-08T00:36:18.488Z,13.3
2023-05-08T00:38:20.482Z,13.3
2023-05-08T00:40:22.466Z,13.3
2023-05-08T00:42:27.518Z,13.3
2023-05-08T00:44:29.521Z,13.2
2023-05-08T00:46:31.539Z,13.2
2023-05-08T00:48:33.483Z,13.1
2023-05-08T00:50:35.518Z,13.1
2023-05-08T00:52:37.501Z,13.1
2023-05-08T00:54:39.480Z,13.1
2023-05-08T00:56:44.562Z,12.9
2023-05-08T00:58:46.556Z,12.9
2023-05-08T01:00:48.542Z,12.9
2023-05-08T01:02:50.623Z,12.8
2023-05-08T01:06:54.556Z,12.7
2023-05-08T01:08:56.547Z,12.7
2023-05-08T01:15:05.621Z,12.6
2023-05-08T01:17:28.519Z,12.4
2023-05-08T01:19:30.454Z,12.4
2023-05-08T01:25:39.528Z,12.3
2023-05-08T01:27:41.519Z,12.3
2023-05-08T01:44:00.557Z,12
2023-05-08T01:46:02.575Z,11.9
2023-05-08T01:52:11.619Z,11.9
2023-05-08T01:56:15.608Z,11.9
2023-05-08T01:58:17.616Z,11.9
2023-05-08T02:00:19.594Z,11.8
2023-05-08T02:02:21.629Z,11.8
2023-05-08T02:06:28.660Z,11.7
2023-05-08T02:08:30.668Z,11.6
2023-05-08T02:10:32.645Z,11.6
2023-05-08T02:11:35.186Z,11.6
2023-05-08T02:13:37.196Z,11.6
2023-05-08T02:15:39.171Z,11.6
2023-05-08T02:17:41.192Z,11.5
2023-05-08T02:27:54.216Z,11.5
2023-05-08T02:29:56.222Z,11.5
2023-05-08T02:31:58.328Z,11.6
2023-05-08T02:34:03.289Z,11.7
2023-05-08T02:36:05.278Z,11.7
2023-05-08T02:38:07.280Z,11.7
2023-05-08T02:40:09.268Z,11.7
2023-05-08T02:42:11.311Z,11.7
2023-05-08T02:44:13.276Z,11.7
2023-05-08T02:46:15.347Z,11.8
2023-05-08T02:48:20.345Z,11.8
2023-05-08T02:54:26.323Z,11.8
2023-05-08T02:56:28.325Z,11.8
2023-05-08T02:58:30.352Z,11.8
2023-05-08T03:00:32.321Z,11.8
2023-05-08T03:02:37.474Z,11.8
2023-05-08T03:04:39.397Z,11.8
2023-05-08T03:06:41.368Z,11.8
2023-05-08T03:07:43.939Z,11.7
2023-05-08T03:17:56.967Z,11.7
2023-05-08T03:24:03.000Z,11.7
2023-05-08T03:26:04.963Z,11.7
2023-05-08T03:32:14.024Z,11.7
2023-05-08T03:36:18.014Z,11.7
2023-05-08T03:44:29.062Z,11.7
2023-05-08T03:46:31.088Z,11.7
2023-05-08T04:09:58.641Z,11.5
2023-05-08T04:14:05.734Z,11.5
2023-05-08T04:16:07.710Z,11.4
2023-05-08T04:28:22.737Z,11.2
2023-05-08T04:30:24.744Z,11.3
2023-05-08T04:36:30.727Z,11.3
2023-05-08T04:46:45.249Z,11.3
2023-05-08T04:48:47.255Z,11.3
2023-05-08T04:50:49.253Z,11.4
2023-05-08T04:52:51.249Z,11.6
2023-05-08T04:54:56.296Z,11.9
2023-05-08T04:59:00.288Z,11.7
2023-05-08T05:15:40.151Z,13.8
2023-05-08T05:17:42.180Z,13.9
2023-05-08T05:19:44.192Z,14.1
2023-05-08T05:21:49.193Z,14.2
2023-05-08T05:23:51.195Z,14.3
2023-05-08T05:25:53.195Z,14.4
2023-05-08T05:27:55.206Z,14.8
2023-05-08T05:29:57.177Z,14.8
2023-05-08T05:31:59.262Z,14.9
2023-05-08T05:34:01.196Z,14.8
2023-05-08T05:36:06.259Z,15.4
2023-05-08T05:38:08.360Z,15.8
2023-05-08T05:40:10.246Z,15.8
2023-05-08T05:42:12.248Z,16.2
2023-05-08T05:44:14.236Z,16.3
2023-05-08T05:46:16.268Z,16.5
2023-05-08T05:48:18.247Z,16.1
2023-05-08T05:50:23.308Z,16.2
2023-05-08T05:52:25.297Z,16.5
2023-05-08T05:59:33.827Z,17.4
2023-05-08T06:01:35.822Z,17.3
2023-05-08T06:03:41.013Z,17.4
2023-05-08T06:07:44.848Z,17.7
2023-05-08T06:09:46.845Z,18.2
2023-05-08T06:13:50.908Z,18.3
2023-05-08T06:15:52.847Z,18.6
2023-05-08T06:24:03.832Z,19.5
2023-05-08T06:28:07.818Z,19.5
2023-05-08T06:32:14.845Z,19.1
2023-05-08T06:36:18.794Z,19.9
2023-05-08T06:46:31.748Z,18.8
2023-05-08T06:51:38.122Z,17.9
2023-05-08T06:53:40.096Z,17.6
2023-05-08T06:55:42.022Z,18.9
2023-05-08T06:57:44.000Z,20.8
2023-05-08T06:59:49.014Z,21.4
2023-05-08T07:03:52.895Z,21.6
2023-05-08T07:05:54.856Z,22.4
2023-05-08T07:07:56.770Z,22.1
2023-05-08T07:09:58.728Z,22.3
2023-05-08T07:12:00.653Z,22.6
2023-05-08T07:14:05.645Z,22.2
2023-05-08T07:16:07.673Z,22.1
2023-05-08T07:18:09.598Z,22.9
2023-05-08T07:20:11.429Z,22.3
2023-05-08T07:22:13.398Z,21.4
2023-05-08T07:36:29.840Z,18
2023-05-08T07:44:50.965Z,18.8
2023-05-08T07:47:45.042Z,20.4
2023-05-08T07:49:46.911Z,20.9
2023-05-08T07:51:48.877Z,21.8
2023-05-08T07:53:50.767Z,22.1
2023-05-08T07:55:55.762Z,21
2023-05-08T07:57:57.707Z,21
2023-05-08T07:59:59.619Z,20.3
2023-05-08T08:02:01.671Z,20
2023-05-08T08:04:03.587Z,20
2023-05-08T08:06:05.372Z,20.2
2023-05-08T08:10:12.255Z,19.5
2023-05-08T08:14:16.046Z,19.3
2023-05-08T08:16:17.994Z,19.4
2023-05-08T08:22:23.671Z,19
2023-05-08T08:24:28.678Z,18.6
2023-05-08T08:26:30.617Z,18.6
2023-05-08T08:32:36.366Z,19.2
2023-05-08T08:34:38.263Z,19.6
2023-05-08T08:36:40.189Z,20.6
2023-05-08T08:38:45.181Z,21.8
2023-05-08T08:40:47.089Z,21.7
2023-05-08T08:42:49.009Z,21.1
2023-05-08T08:57:20.320Z,19.1
2023-05-08T08:59:22.254Z,19.2
2023-05-08T09:01:24.177Z,19.4
2023-05-08T09:09:34.892Z,20.2
2023-05-08T09:11:36.815Z,20.4
2023-05-08T09:17:42.559Z,20
2023-05-08T09:19:47.574Z,19.4
2023-05-08T09:27:55.238Z,19.6
2023-05-08T09:34:04.077Z,20.3
2023-05-08T09:39:10.421Z,20.8
2023-05-08T09:43:14.274Z,21.1
2023-05-08T09:45:16.180Z,20.9
2023-05-08T09:47:21.170Z,20.6
2023-05-08T09:49:23.051Z,20.4
2023-05-08T09:51:24.987Z,20.5
2023-05-08T09:53:26.898Z,20.6
2023-05-08T09:55:28.784Z,20.7
2023-05-08T09:57:30.691Z,20.7
2023-05-08T09:59:34.170Z,20.4
2023-05-08T10:01:37.659Z,20.3
2023-05-08T10:05:41.419Z,20.8
2023-05-08T10:07:43.321Z,20.9
2023-05-08T10:09:50.633Z,20.9
2023-05-08T10:11:47.132Z,20.8
2023-05-08T10:13:48.999Z,20.7
2023-05-08T10:15:54.047Z,20.8
2023-05-08T10:17:55.951Z,20.6
2023-05-08T10:32:12.225Z,22.3
2023-05-08T10:39:21.801Z,22.7
2023-05-08T10:51:36.141Z,20.2
2023-05-08T10:53:38.014Z,20.2
2023-05-08T10:55:39.917Z,20.1
2023-05-08T10:57:44.857Z,20
2023-05-08T10:59:46.741Z,20.1
2023-05-08T11:01:48.674Z,20.1
2023-05-08T11:12:01.142Z,20
2023-05-08T11:14:02.984Z,20
2023-05-08T11:16:04.961Z,19.7
2023-05-08T11:22:10.576Z,19.3
2023-05-08T11:26:17.436Z,19.1
2023-05-08T11:30:21.267Z,19.1
2023-05-08T11:31:23.786Z,19
2023-05-08T11:33:25.664Z,18.9
2023-05-08T11:35:27.553Z,18.6
2023-05-08T11:37:29.473Z,18.4
2023-05-08T11:39:34.455Z,18.2
2023-05-08T11:49:44.053Z,17.5
2023-05-08T11:55:52.938Z,17.3
2023-05-08T11:57:54.851Z,17.3
2023-05-08T11:59:56.814Z,17.4
2023-05-08T12:04:00.826Z,17.7
2023-05-08T12:06:02.604Z,17.9
2023-05-08T12:08:07.659Z,18.3
2023-05-08T12:10:09.570Z,18.3
2023-05-08T12:20:19.593Z,19.1
2023-05-08T12:28:50.861Z,19.9
2023-05-08T12:30:52.822Z,19.9
2023-05-08T12:34:59.761Z,20
2023-05-08T12:37:01.701Z,20.1
2023-05-08T12:39:03.791Z,20.1
2023-05-08T12:41:05.501Z,20.3
2023-05-08T12:49:16.244Z,20.7
2023-05-08T12:51:18.157Z,20.5
2023-05-08T13:09:38.387Z,19.9
2023-05-08T13:11:40.284Z,20.1
2023-05-08T13:13:42.183Z,20.5
2023-05-08T13:17:49.118Z,21
2023-05-08T13:19:50.977Z,21.3
2023-05-08T13:21:52.886Z,21.5
2023-05-08T13:22:55.364Z,21.4
2023-05-08T13:26:59.152Z,21.3
2023-05-08T13:29:01.043Z,21
2023-05-08T13:31:06.074Z,21
2023-05-08T13:35:09.780Z,21.1
2023-05-08T13:37:11.680Z,21
2023-05-08T13:41:15.458Z,20.7
2023-05-08T13:45:22.845Z,20.4
2023-05-08T13:47:24.725Z,20.2
2023-05-08T13:49:26.590Z,20.3
2023-05-08T13:51:28.530Z,20.3
2023-05-08T13:53:30.383Z,20.3
2023-05-08T13:57:34.129Z,20.7
2023-05-08T13:59:39.092Z,20.9
2023-05-08T14:07:46.672Z,22
2023-05-08T14:09:48.527Z,22.1
2023-05-08T14:11:50.393Z,22.1
2023-05-08T14:13:55.397Z,22.9
2023-05-08T14:19:01.582Z,21.9
2023-05-08T14:21:03.454Z,21.6
2023-05-08T14:23:05.289Z,21.6
2023-05-08T14:25:07.178Z,21.6
2023-05-08T14:27:12.123Z,21.5
2023-05-08T14:29:13.951Z,21.6
2023-05-08T14:31:15.871Z,21.6
2023-05-08T14:37:21.345Z,21.2
2023-05-08T14:39:23.178Z,21.3
2023-05-08T14:41:28.177Z,21.2
2023-05-08T14:43:30.009Z,21.1
2023-05-08T14:45:31.859Z,21.3
2023-05-08T14:47:33.791Z,21.2
2023-05-08T14:51:37.432Z,21.1
2023-05-08T14:53:39.386Z,21.2
2023-05-08T14:55:44.449Z,21.1
2023-05-08T14:57:46.102Z,21.3
2023-05-08T15:01:49.857Z,21
2023-05-08T15:07:55.399Z,20.6
2023-05-08T15:10:00.380Z,20.5
2023-05-08T15:14:04.121Z,20.5
2023-05-08T15:15:06.624Z,20.5
2023-05-08T15:17:08.493Z,20.5
2023-05-08T15:19:10.326Z,20.3
2023-05-08T15:27:20.957Z,20.1
2023-05-08T15:31:24.751Z,19.9
2023-05-08T15:33:26.634Z,19.7
2023-05-08T15:35:28.469Z,19.6
2023-05-08T15:37:33.477Z,19.6
2023-05-08T15:39:35.357Z,19.7
2023-05-08T15:41:37.267Z,19.9
2023-05-08T15:43:39.164Z,20.1
2023-05-08T15:45:41.069Z,20.1
2023-05-08T15:47:42.966Z,20.1
2023-05-08T15:49:44.834Z,20.1
2023-05-08T15:51:49.836Z,20
2023-05-08T15:53:51.735Z,20
2023-05-08T15:55:53.610Z,20.1
2023-05-08T15:57:55.526Z,20.3
2023-05-08T15:59:57.434Z,20.5
2023-05-08T16:01:59.313Z,20.5
2023-05-08T16:06:06.232Z,20.1
2023-05-08T16:10:10.027Z,20
2023-05-08T16:16:34.244Z,19.8
2023-05-08T16:18:39.190Z,19.8
2023-05-08T16:24:44.872Z,20.3
2023-05-08T16:30:52.044Z,20.4
2023-05-08T16:32:57.090Z,20.3
2023-05-08T16:34:58.942Z,20.3
2023-05-08T16:37:00.809Z,20.2
2023-05-08T16:39:02.735Z,20.2
2023-05-08T16:43:06.532Z,20.2
2023-05-08T16:47:13.489Z,19.8
2023-05-08T16:51:17.199Z,19.8
2023-05-08T16:55:21.014Z,19.7
2023-05-08T16:59:24.839Z,19.5
2023-05-08T17:01:29.869Z,19.4
2023-05-08T17:03:31.967Z,19.4
2023-05-08T17:05:33.643Z,19.4
2023-05-08T17:06:36.150Z,19.3
2023-05-08T17:10:39.991Z,19.3
2023-05-08T17:14:46.884Z,19.3
2023-05-08T17:18:50.748Z,19.2
2023-05-08T17:20:52.658Z,19.2
2023-05-08T17:24:56.497Z,19.2
2023-05-08T17:29:03.425Z,18.9
2023-05-08T17:31:05.342Z,18.9
2023-05-08T17:35:09.196Z,18.8
2023-05-08T17:43:20.758Z,18.6
2023-05-08T17:45:21.915Z,18.5
2023-05-08T17:47:23.913Z,18.5
2023-05-08T17:49:25.796Z,18.6
2023-05-08T17:51:27.734Z,18.6
2023-05-08T17:53:29.656Z,18.5
2023-05-08T17:55:31.615Z,18.4
2023-05-08T17:57:36.608Z,18.3
2023-05-08T17:59:38.566Z,18.3
2023-05-08T18:01:40.530Z,18.3
2023-05-08T18:08:48.809Z,18.2
2023-05-08T18:10:53.809Z,18.1
2023-05-08T18:14:57.700Z,18
2023-05-08T18:16:59.642Z,18
2023-05-08T18:19:01.603Z,17.9
2023-05-08T18:23:05.486Z,17.9
2023-05-08T18:25:10.515Z,17.8
2023-05-08T18:29:14.411Z,17.8
2023-05-08T18:31:16.427Z,17.7
2023-05-08T18:33:18.318Z,17.7
2023-05-08T18:37:22.213Z,17.6
2023-05-08T18:49:37.030Z,16.5
2023-05-08T18:51:38.993Z,16.4
2023-05-08T18:58:50.475Z,15.9
2023-05-08T19:00:52.520Z,15.9
2023-05-08T19:02:54.501Z,16
2023-05-08T19:04:56.400Z,16
2023-05-08T19:07:01.438Z,15.9
2023-05-08T19:09:03.390Z,15.9
2023-05-08T19:11:05.372Z,15.9
2023-05-08T19:13:07.421Z,15.9
2023-05-08T19:15:09.414Z,15.9
2023-05-08T19:17:11.290Z,15.9
2023-05-08T19:19:13.265Z,15.8
2023-05-08T19:21:18.300Z,15.9
2023-05-08T19:23:20.296Z,15.8
2023-05-08T19:25:22.273Z,15.8
2023-05-08T19:29:26.241Z,15.7
2023-05-08T19:31:28.224Z,15.6
2023-05-08T19:33:30.193Z,15.6
2023-05-08T19:35:35.236Z,15.5
2023-05-08T19:37:37.192Z,15.5
2023-05-08T19:56:18.725Z,15.3
2023-05-08T19:58:20.719Z,15.3
2023-05-08T20:00:22.719Z,15.3
2023-05-08T20:02:27.821Z,15.2
2023-05-08T20:04:29.750Z,15.2
2023-05-08T20:06:31.728Z,15.2
2023-05-08T20:08:33.704Z,15.2
2023-05-08T20:10:35.702Z,15.1
2023-05-08T20:12:37.686Z,15.1
2023-05-08T20:16:44.769Z,15.1
2023-05-08T20:18:46.677Z,15.1
2023-05-08T20:22:50.685Z,15.1
2023-05-08T20:24:52.643Z,15
2023-05-08T20:26:54.629Z,15.1
2023-05-08T20:28:56.651Z,15
2023-05-08T20:50:25.165Z,14.9
2023-05-08T20:52:27.148Z,15
2023-05-08T20:54:29.113Z,15
2023-05-08T20:56:31.109Z,15
2023-05-08T21:12:53.160Z,15
2023-05-08T21:14:55.080Z,15
2023-05-08T21:16:57.145Z,15
2023-05-08T21:18:59.067Z,15
2023-05-08T21:25:05.019Z,14.9
2023-05-08T21:27:10.103Z,14.9
2023-05-08T21:29:12.087Z,14.9
2023-05-08T21:33:16.021Z,15
2023-05-08T21:35:18.099Z,15
2023-05-08T21:37:19.990Z,14.9
2023-05-08T21:39:21.990Z,14.9
2023-05-08T21:41:27.032Z,14.9
2023-05-08T21:43:29.003Z,14.9
2023-05-08T21:45:31.026Z,15
2023-05-08T21:46:33.606Z,14.9
2023-05-08T22:13:05.506Z,14.7
2023-05-08T22:19:12.956Z,14.6
2023-05-08T22:21:14.926Z,14.6
2023-05-08T22:23:19.955Z,14.5
2023-05-08T22:25:22.174Z,14.5
2023-05-08T22:27:23.950Z,14.4
2023-05-08T22:29:25.933Z,14.4
2023-05-08T22:31:27.960Z,14.4
2023-05-08T22:33:29.923Z,14.4
2023-05-08T22:35:31.910Z,14.4
2023-05-08T22:37:36.968Z,14.4
2023-05-08T22:39:38.966Z,14.4
2023-05-08T22:41:40.954Z,14.4
2023-05-08T22:52:56.505Z,14.5
2023-05-08T22:54:58.481Z,14.5
2023-05-08T22:57:00.505Z,14.5
2023-05-08T22:59:02.477Z,14.5
2023-05-08T23:01:04.497Z,14.4
2023-05-08T23:03:06.552Z,14.5
2023-05-08T23:05:11.681Z,14.4
2023-05-08T23:07:13.523Z,14.4
2023-05-08T23:09:15.529Z,14.4
2023-05-08T23:11:17.523Z,14.5
2023-05-08T23:15:21.519Z,14.5
2023-05-08T23:17:23.468Z,14.5
2023-05-08T23:19:28.550Z,14.6
2023-05-08T23:21:30.542Z,14.6
2023-05-08T23:31:40.560Z,14.6
2023-05-08T23:48:22.415Z,14.5
